Terminal Aerodrome Forecast
Issued by NWS

Home | Current Version | Previous Version | Text Only | Print | Product List | Glossary On
Versions: 1 2 3 4 5 6 7 8 9 10 11 12 13 14 15 16 17 18 19
378
FTAK31 PAJN 092334
TAFAWG
TAF
PAWG 092334Z 1000/1024 VRB06KT P6SM FEW010 SCT040 BKN060
     FM100600 10010KT P6SM BKN040 OVC100 WS020/13030KT
     FM100900 10010KT P6SM -RA SCT030 OVC060 WS020/13035KT
     FM101200 10012G20KT 4SM -RA BR FEW006 SCT010 OVC025
     FM101800 12012G20KT 6SM -RA SCT010 SCT025 OVC040
      AMD LTD TO CLD VIS AND WIND 1007/1012=

USA.gov is the U.S. government's official web portal to all federal, state and local government web resources and services.